Sac River (Missouri), Route J (06919020)

StateMissouriLatestPoor (75 cfs)
RiverSac RiverRatingObservedEstimated
Updated2022-09-25 22:45 (33 minutes ago)Flood - The river is flooding. Obstacles can be treacherous or deadly. The river should be avoided at this stage for casual trips and definitely for the inexperienced. Trips should be attempted only with protective gear and equipment.Flood(none)4536
Discharge75 cfs (median: 289 cfs)High - The river is high and potentially dangerous, especially for the young and / or inexperienced. Normal stream obstacles are sometimes difficult to navigate. Extended distances can be attempted, but canoe travel may not be advisable.High(none)1480
Height5.64 feetGood - Conditions are ideal for a canoe or kayak. Boats typically will drag on fewer than one-quarter of riffles, if at all, and portages are unnecessary or rare. Normal float lengths can be attempted without a problem.Good(none)1124
TrendSteady (falling over 24 hours)Low - River is low but can still be floated. Some riffles are okay but most come with significant dragging and might need a portage. Float lengths should be reduced to accommodate low flow, dragging, and portages.Low(none)955
USGSExternal icon USGS Site (External icon Duck Duck Go Maps)Poor - River is too low to float comfortably. Most or all riffles will drag or must be portaged and some obstacles (such as slick shelf rock) cause undue problems. Avoid the river at this stage for casual paddling trips.Poor(none)61

Trending Data

Plot Image

Trips for Sac River (Missouri), Route J (06919020)

DateStartEndDistanceConditionDischargeHeightFishingDetails

A total of 0 rows are displayed.

Condition Descriptions

Fishing Conditions

Fish Species

Notes

Classic Trip List

The classic River Trips application is still available for use. It is updated with the new system using a data retrofit. It is no longer maintained. The original River Trips application is no longer updated (as of 1 Dec 2016) but can be checked for errors or for the condition of the data before it was converted to the new system.

Gauge Data Table

ObservationHeightDischargeMaximum
Discharge
Minimum
Discharge
Mean
Discharge
P05P10P20P25P50
(Median)
P75P80P90P95
2022-09-25 22:45 5.64 75 12800 (1993) 39 (2014) 889 49 58 67 72 289 1140 1500 1950 2870
2022-09-25 21:45 5.64 75 12800 (1993) 39 (2014) 889 49 58 67 72 289 1140 1500 1950 2870
2022-09-25 20:45 5.64 75 12800 (1993) 39 (2014) 889 49 58 67 72 289 1140 1500 1950 2870
2022-09-25 19:45 5.62 72 12800 (1993) 39 (2014) 889 49 58 67 72 289 1140 1500 1950 2870
2022-09-25 18:45 5.61 70 12800 (1993) 39 (2014) 889 49 58 67 72 289 1140 1500 1950 2870
2022-09-25 17:45 5.70 83 12800 (1993) 39 (2014) 889 49 58 67 72 289 1140 1500 1950 2870
2022-09-25 16:45 5.68 80 12800 (1993) 39 (2014) 889 49 58 67 72 289 1140 1500 1950 2870
2022-09-25 15:45 5.64 75 12800 (1993) 39 (2014) 889 49 58 67 72 289 1140 1500 1950 2870
2022-09-25 14:45 5.64 75 12800 (1993) 39 (2014) 889 49 58 67 72 289 1140 1500 1950 2870
2022-09-25 13:45 5.66 77 12800 (1993) 39 (2014) 889 49 58 67 72 289 1140 1500 1950 2870
2022-09-25 12:45 5.70 83 12800 (1993) 39 (2014) 889 49 58 67 72 289 1140 1500 1950 2870
2022-09-25 11:45 5.69 82 12800 (1993) 39 (2014) 889 49 58 67 72 289 1140 1500 1950 2870
2022-09-25 10:45 5.73 88 12800 (1993) 39 (2014) 889 49 58 67 72 289 1140 1500 1950 2870
2022-09-25 09:45 5.76 92 12800 (1993) 39 (2014) 889 49 58 67 72 289 1140 1500 1950 2870
2022-09-25 08:45 5.84 105 12800 (1993) 39 (2014) 889 49 58 67 72 289 1140 1500 1950 2870
2022-09-25 07:45 5.93 121 12800 (1993) 39 (2014) 889 49 58 67 72 289 1140 1500 1950 2870
2022-09-25 06:45 6.10 153 12800 (1993) 39 (2014) 889 49 58 67 72 289 1140 1500 1950 2870
2022-09-25 05:45 6.24 181 12800 (1993) 39 (2014) 889 49 58 67 72 289 1140 1500 1950 2870
2022-09-25 04:45 6.46 230 12800 (1993) 39 (2014) 889 49 58 67 72 289 1140 1500 1950 2870
2022-09-25 03:45 6.73 296 12800 (1993) 39 (2014) 889 49 58 67 72 289 1140 1500 1950 2870
2022-09-25 02:45 7.09 384 12800 (1993) 39 (2014) 889 49 58 67 72 289 1140 1500 1950 2870
2022-09-25 01:45 7.52 495 12800 (1993) 39 (2014) 889 49 58 67 72 289 1140 1500 1950 2870
2022-09-25 00:45 8.05 648 12800 (1993) 39 (2014) 889 49 58 67 72 289 1140 1500 1950 2870
2022-09-24 23:45 8.65 840 6760 (1993) 39 (2014) 842 50 59 68 75 372 1370 1440 2010 2830
2022-09-24 22:45 9.31 1070 6760 (1993) 39 (2014) 842 50 59 68 75 372 1370 1440 2010 2830
2022-09-24 21:45 10.08 1380 6760 (1993) 39 (2014) 842 50 59 68 75 372 1370 1440 2010 2830
2022-09-24 20:45 10.92 1760 6760 (1993) 39 (2014) 842 50 59 68 75 372 1370 1440 2010 2830
2022-09-24 19:45 11.89 2270 6760 (1993) 39 (2014) 842 50 59 68 75 372 1370 1440 2010 2830
2022-09-24 18:45 12.50 2630 6760 (1993) 39 (2014) 842 50 59 68 75 372 1370 1440 2010 2830
2022-09-24 17:45 10.83 1720 6760 (1993) 39 (2014) 842 50 59 68 75 372 1370 1440 2010 2830
2022-09-24 16:45 5.78 96 6760 (1993) 39 (2014) 842 50 59 68 75 372 1370 1440 2010 2830
2022-09-24 15:45 5.64 75 6760 (1993) 39 (2014) 842 50 59 68 75 372 1370 1440 2010 2830
2022-09-24 14:45 5.62 72 6760 (1993) 39 (2014) 842 50 59 68 75 372 1370 1440 2010 2830
2022-09-24 13:45 5.67 79 6760 (1993) 39 (2014) 842 50 59 68 75 372 1370 1440 2010 2830
2022-09-24 12:45 5.60 69 6760 (1993) 39 (2014) 842 50 59 68 75 372 1370 1440 2010 2830
2022-09-24 11:45 5.60 69 6760 (1993) 39 (2014) 842 50 59 68 75 372 1370 1440 2010 2830
2022-09-24 10:45 5.60 69 6760 (1993) 39 (2014) 842 50 59 68 75 372 1370 1440 2010 2830
2022-09-24 09:45 5.66 77 6760 (1993) 39 (2014) 842 50 59 68 75 372 1370 1440 2010 2830
2022-09-24 08:45 5.66 77 6760 (1993) 39 (2014) 842 50 59 68 75 372 1370 1440 2010 2830
2022-09-24 07:45 5.61 70 6760 (1993) 39 (2014) 842 50 59 68 75 372 1370 1440 2010 2830
2022-09-24 06:45 5.63 73 6760 (1993) 39 (2014) 842 50 59 68 75 372 1370 1440 2010 2830
2022-09-24 05:45 5.67 79 6760 (1993) 39 (2014) 842 50 59 68 75 372 1370 1440 2010 2830
2022-09-24 04:45 5.62 72 6760 (1993) 39 (2014) 842 50 59 68 75 372 1370 1440 2010 2830
2022-09-24 03:45 5.61 70 6760 (1993) 39 (2014) 842 50 59 68 75 372 1370 1440 2010 2830
2022-09-24 02:45 5.69 82 6760 (1993) 39 (2014) 842 50 59 68 75 372 1370 1440 2010 2830
2022-09-24 01:45 5.65 76 6760 (1993) 39 (2014) 842 50 59 68 75 372 1370 1440 2010 2830
2022-09-24 00:45 5.64 75 6760 (1993) 39 (2014) 842 50 59 68 75 372 1370 1440 2010 2830
2022-09-23 23:45 5.68 80 3060 (1975) 41 (2014) 712 49 59 67 75 435 1230 1330 1980 2510
2022-09-23 22:45 5.70 83 3060 (1975) 41 (2014) 712 49 59 67 75 435 1230 1330 1980 2510
2022-09-23 21:45 5.70 83 3060 (1975) 41 (2014) 712 49 59 67 75 435 1230 1330 1980 2510
2022-09-23 20:45 5.64 75 3060 (1975) 41 (2014) 712 49 59 67 75 435 1230 1330 1980 2510
2022-09-23 19:45 5.67 79 3060 (1975) 41 (2014) 712 49 59 67 75 435 1230 1330 1980 2510
2022-09-23 18:45 5.62 72 3060 (1975) 41 (2014) 712 49 59 67 75 435 1230 1330 1980 2510
2022-09-23 17:45 5.63 73 3060 (1975) 41 (2014) 712 49 59 67 75 435 1230 1330 1980 2510
2022-09-23 16:45 5.61 70 3060 (1975) 41 (2014) 712 49 59 67 75 435 1230 1330 1980 2510
2022-09-23 15:45 5.59 68 3060 (1975) 41 (2014) 712 49 59 67 75 435 1230 1330 1980 2510
2022-09-23 14:45 5.71 85 3060 (1975) 41 (2014) 712 49 59 67 75 435 1230 1330 1980 2510
2022-09-23 13:45 5.64 75 3060 (1975) 41 (2014) 712 49 59 67 75 435 1230 1330 1980 2510
2022-09-23 12:45 5.67 79 3060 (1975) 41 (2014) 712 49 59 67 75 435 1230 1330 1980 2510
2022-09-23 11:45 5.66 77 3060 (1975) 41 (2014) 712 49 59 67 75 435 1230 1330 1980 2510
2022-09-23 10:45 5.64 75 3060 (1975) 41 (2014) 712 49 59 67 75 435 1230 1330 1980 2510
2022-09-23 09:45 5.73 88 3060 (1975) 41 (2014) 712 49 59 67 75 435 1230 1330 1980 2510
2022-09-23 08:45 5.69 82 3060 (1975) 41 (2014) 712 49 59 67 75 435 1230 1330 1980 2510
2022-09-23 07:45 5.67 79 3060 (1975) 41 (2014) 712 49 59 67 75 435 1230 1330 1980 2510
2022-09-23 06:45 5.65 76 3060 (1975) 41 (2014) 712 49 59 67 75 435 1230 1330 1980 2510
2022-09-23 05:45 5.67 79 3060 (1975) 41 (2014) 712 49 59 67 75 435 1230 1330 1980 2510
2022-09-23 04:45 5.68 80 3060 (1975) 41 (2014) 712 49 59 67 75 435 1230 1330 1980 2510
2022-09-23 03:45 5.75 91 3060 (1975) 41 (2014) 712 49 59 67 75 435 1230 1330 1980 2510
2022-09-23 02:45 5.66 77 3060 (1975) 41 (2014) 712 49 59 67 75 435 1230 1330 1980 2510
2022-09-23 01:45 5.64 75 3060 (1975) 41 (2014) 712 49 59 67 75 435 1230 1330 1980 2510
2022-09-23 00:45 5.70 83 3060 (1975) 41 (2014) 712 49 59 67 75 435 1230 1330 1980 2510
2022-09-22 23:45 5.67 79 2450 (1993) 42 (2014) 657 51 60 71 80 256 1230 1490 2030 2320
2022-09-22 22:45 5.70 83 2450 (1993) 42 (2014) 657 51 60 71 80 256 1230 1490 2030 2320
2022-09-22 21:45 5.67 79 2450 (1993) 42 (2014) 657 51 60 71 80 256 1230 1490 2030 2320
2022-09-22 20:45 5.74 89 2450 (1993) 42 (2014) 657 51 60 71 80 256 1230 1490 2030 2320
2022-09-22 19:45 5.65 76 2450 (1993) 42 (2014) 657 51 60 71 80 256 1230 1490 2030 2320
2022-09-22 18:45 5.69 82 2450 (1993) 42 (2014) 657 51 60 71 80 256 1230 1490 2030 2320
2022-09-22 17:45 5.72 86 2450 (1993) 42 (2014) 657 51 60 71 80 256 1230 1490 2030 2320
2022-09-22 16:45 5.74 89 2450 (1993) 42 (2014) 657 51 60 71 80 256 1230 1490 2030 2320
2022-09-22 15:45 5.68 80 2450 (1993) 42 (2014) 657 51 60 71 80 256 1230 1490 2030 2320
2022-09-22 14:45 5.74 89 2450 (1993) 42 (2014) 657 51 60 71 80 256 1230 1490 2030 2320
2022-09-22 13:45 5.82 102 2450 (1993) 42 (2014) 657 51 60 71 80 256 1230 1490 2030 2320
2022-09-22 12:45 5.81 100 2450 (1993) 42 (2014) 657 51 60 71 80 256 1230 1490 2030 2320
2022-09-22 11:45 5.88 112 2450 (1993) 42 (2014) 657 51 60 71 80 256 1230 1490 2030 2320
2022-09-22 10:45 5.89 114 2450 (1993) 42 (2014) 657 51 60 71 80 256 1230 1490 2030 2320
2022-09-22 09:45 5.97 128 2450 (1993) 42 (2014) 657 51 60 71 80 256 1230 1490 2030 2320
2022-09-22 08:45 6.09 151 2450 (1993) 42 (2014) 657 51 60 71 80 256 1230 1490 2030 2320
2022-09-22 07:45 6.20 173 2450 (1993) 42 (2014) 657 51 60 71 80 256 1230 1490 2030 2320
2022-09-22 06:45 6.36 208 2450 (1993) 42 (2014) 657 51 60 71 80 256 1230 1490 2030 2320
2022-09-22 05:45 6.59 261 2450 (1993) 42 (2014) 657 51 60 71 80 256 1230 1490 2030 2320
2022-09-22 04:45 6.83 322 2450 (1993) 42 (2014) 657 51 60 71 80 256 1230 1490 2030 2320
2022-09-22 03:45 7.18 406 2450 (1993) 42 (2014) 657 51 60 71 80 256 1230 1490 2030 2320
2022-09-22 02:45 7.50 490 2450 (1993) 42 (2014) 657 51 60 71 80 256 1230 1490 2030 2320
2022-09-22 01:45 8.05 648 2450 (1993) 42 (2014) 657 51 60 71 80 256 1230 1490 2030 2320
2022-09-22 00:45 8.62 829 2450 (1993) 42 (2014) 657 51 60 71 80 256 1230 1490 2030 2320
2022-09-21 23:45 9.29 1070 3340 (1993) 45 (2014) 672 54 59 69 81 395 1080 1210 1900 2940
2022-09-21 22:45 10.12 1400 3340 (1993) 45 (2014) 672 54 59 69 81 395 1080 1210 1900 2940
2022-09-21 21:45 11.02 1810 3340 (1993) 45 (2014) 672 54 59 69 81 395 1080 1210 1900 2940
2022-09-21 20:45 11.91 2280 3340 (1993) 45 (2014) 672 54 59 69 81 395 1080 1210 1900 2940
2022-09-21 19:45 12.95 2900 3340 (1993) 45 (2014) 672 54 59 69 81 395 1080 1210 1900 2940
2022-09-21 18:45 13.56 3290 3340 (1993) 45 (2014) 672 54 59 69 81 395 1080 1210 1900 2940
2022-09-21 17:45 11.38 2000 3340 (1993) 45 (2014) 672 54 59 69 81 395 1080 1210 1900 2940
2022-09-21 16:45 6.03 140 3340 (1993) 45 (2014) 672 54 59 69 81 395 1080 1210 1900 2940
2022-09-21 15:45 5.72 86 3340 (1993) 45 (2014) 672 54 59 69 81 395 1080 1210 1900 2940
2022-09-21 14:45 5.87 110 3340 (1993) 45 (2014) 672 54 59 69 81 395 1080 1210 1900 2940
2022-09-21 13:45 5.84 105 3340 (1993) 45 (2014) 672 54 59 69 81 395 1080 1210 1900 2940
2022-09-21 12:45 5.88 112 3340 (1993) 45 (2014) 672 54 59 69 81 395 1080 1210 1900 2940
2022-09-21 11:45 5.77 94 3340 (1993) 45 (2014) 672 54 59 69 81 395 1080 1210 1900 2940
2022-09-21 10:45 5.85 107 3340 (1993) 45 (2014) 672 54 59 69 81 395 1080 1210 1900 2940
2022-09-21 09:45 5.92 119 3340 (1993) 45 (2014) 672 54 59 69 81 395 1080 1210 1900 2940
2022-09-21 08:45 6.05 143 3340 (1993) 45 (2014) 672 54 59 69 81 395 1080 1210 1900 2940
2022-09-21 07:45 6.24 181 3340 (1993) 45 (2014) 672 54 59 69 81 395 1080 1210 1900 2940
2022-09-21 06:45 6.63 270 3340 (1993) 45 (2014) 672 54 59 69 81 395 1080 1210 1900 2940
2022-09-21 05:45 6.70 288 3340 (1993) 45 (2014) 672 54 59 69 81 395 1080 1210 1900 2940
2022-09-21 04:45 7.02 367 3340 (1993) 45 (2014) 672 54 59 69 81 395 1080 1210 1900 2940
2022-09-21 03:45 7.50 490 3340 (1993) 45 (2014) 672 54 59 69 81 395 1080 1210 1900 2940
2022-09-21 02:45 7.91 606 3340 (1993) 45 (2014) 672 54 59 69 81 395 1080 1210 1900 2940
2022-09-21 01:45 8.49 786 3340 (1993) 45 (2014) 672 54 59 69 81 395 1080 1210 1900 2940
2022-09-21 00:45 9.25 1050 3340 (1993) 45 (2014) 672 54 59 69 81 395 1080 1210 1900 2940
2022-09-20 23:45 9.97 1340 3180 (1993) 53 (2014) 715 55 61 75 84 421 1350 1400 1710 2360
2022-09-20 22:45 10.84 1720 3180 (1993) 53 (2014) 715 55 61 75 84 421 1350 1400 1710 2360
2022-09-20 21:45 11.83 2240 3180 (1993) 53 (2014) 715 55 61 75 84 421 1350 1400 1710 2360
2022-09-20 20:45 12.83 2830 3180 (1993) 53 (2014) 715 55 61 75 84 421 1350 1400 1710 2360
2022-09-20 19:45 13.96 3560 3180 (1993) 53 (2014) 715 55 61 75 84 421 1350 1400 1710 2360
2022-09-20 18:45 14.46 3900 3180 (1993) 53 (2014) 715 55 61 75 84 421 1350 1400 1710 2360
2022-09-20 17:45 11.08 1840 3180 (1993) 53 (2014) 715 55 61 75 84 421 1350 1400 1710 2360
2022-09-20 16:45 5.90 116 3180 (1993) 53 (2014) 715 55 61 75 84 421 1350 1400 1710 2360
2022-09-20 15:45 5.66 77 3180 (1993) 53 (2014) 715 55 61 75 84 421 1350 1400 1710 2360
2022-09-20 14:45 5.65 76 3180 (1993) 53 (2014) 715 55 61 75 84 421 1350 1400 1710 2360
2022-09-20 13:45 5.72 86 3180 (1993) 53 (2014) 715 55 61 75 84 421 1350 1400 1710 2360
2022-09-20 12:45 5.69 82 3180 (1993) 53 (2014) 715 55 61 75 84 421 1350 1400 1710 2360
2022-09-20 11:45 5.83 104 3180 (1993) 53 (2014) 715 55 61 75 84 421 1350 1400 1710 2360
2022-09-20 10:45 5.74 89 3180 (1993) 53 (2014) 715 55 61 75 84 421 1350 1400 1710 2360
2022-09-20 09:45 5.97 128 3180 (1993) 53 (2014) 715 55 61 75 84 421 1350 1400 1710 2360
2022-09-20 08:45 5.97 128 3180 (1993) 53 (2014) 715 55 61 75 84 421 1350 1400 1710 2360
2022-09-20 07:45 6.10 153 3180 (1993) 53 (2014) 715 55 61 75 84 421 1350 1400 1710 2360
2022-09-20 06:45 6.22 177 3180 (1993) 53 (2014) 715 55 61 75 84 421 1350 1400 1710 2360
2022-09-20 05:45 6.37 210 3180 (1993) 53 (2014) 715 55 61 75 84 421 1350 1400 1710 2360
2022-09-20 04:45 6.69 286 3180 (1993) 53 (2014) 715 55 61 75 84 421 1350 1400 1710 2360
2022-09-20 03:45 7.06 377 3180 (1993) 53 (2014) 715 55 61 75 84 421 1350 1400 1710 2360
2022-09-20 02:45 7.67 537 3180 (1993) 53 (2014) 715 55 61 75 84 421 1350 1400 1710 2360
2022-09-20 01:45 7.91 606 3180 (1993) 53 (2014) 715 55 61 75 84 421 1350 1400 1710 2360
2022-09-20 00:45 8.56 810 3180 (1993) 53 (2014) 715 55 61 75 84 421 1350 1400 1710 2360
2022-09-19 23:45 9.19 1030 3120 (1975) 52 (1976) 880 58 60 75 80 551 1500 1570 2600 2880
2022-09-19 22:45 9.92 1320 3120 (1975) 52 (1976) 880 58 60 75 80 551 1500 1570 2600 2880
2022-09-19 21:45 10.77 1690 3120 (1975) 52 (1976) 880 58 60 75 80 551 1500 1570 2600 2880
2022-09-19 20:45 11.91 2280 3120 (1975) 52 (1976) 880 58 60 75 80 551 1500 1570 2600 2880
2022-09-19 19:45 12.94 2890 3120 (1975) 52 (1976) 880 58 60 75 80 551 1500 1570 2600 2880
2022-09-19 18:45 13.84 3480 3120 (1975) 52 (1976) 880 58 60 75 80 551 1500 1570 2600 2880
2022-09-19 17:45 14.21 3730 3120 (1975) 52 (1976) 880 58 60 75 80 551 1500 1570 2600 2880
2022-09-19 16:45 10.98 1790 3120 (1975) 52 (1976) 880 58 60 75 80 551 1500 1570 2600 2880
2022-09-19 15:45 5.88 112 3120 (1975) 52 (1976) 880 58 60 75 80 551 1500 1570 2600 2880
2022-09-19 14:45 5.64 75 3120 (1975) 52 (1976) 880 58 60 75 80 551 1500 1570 2600 2880
2022-09-19 13:45 5.72 86 3120 (1975) 52 (1976) 880 58 60 75 80 551 1500 1570 2600 2880
2022-09-19 12:45 5.71 85 3120 (1975) 52 (1976) 880 58 60 75 80 551 1500 1570 2600 2880
2022-09-19 11:45 5.70 83 3120 (1975) 52 (1976) 880 58 60 75 80 551 1500 1570 2600 2880
2022-09-19 10:45 5.72 86 3120 (1975) 52 (1976) 880 58 60 75 80 551 1500 1570 2600 2880
2022-09-19 09:45 5.78 96 3120 (1975) 52 (1976) 880 58 60 75 80 551 1500 1570 2600 2880
2022-09-19 08:45 5.83 104 3120 (1975) 52 (1976) 880 58 60 75 80 551 1500 1570 2600 2880
2022-09-19 07:45 6.03 140 3120 (1975) 52 (1976) 880 58 60 75 80 551 1500 1570 2600 2880
2022-09-19 06:45 6.06 145 3120 (1975) 52 (1976) 880 58 60 75 80 551 1500 1570 2600 2880
2022-09-19 05:45 6.20 173 3120 (1975) 52 (1976) 880 58 60 75 80 551 1500 1570 2600 2880
2022-09-19 04:45 6.49 237 3120 (1975) 52 (1976) 880 58 60 75 80 551 1500 1570 2600 2880
2022-09-19 03:45 6.77 307 3120 (1975) 52 (1976) 880 58 60 75 80 551 1500 1570 2600 2880
2022-09-19 02:45 7.16 401 3120 (1975) 52 (1976) 880 58 60 75 80 551 1500 1570 2600 2880
2022-09-19 01:45 7.58 512 3120 (1975) 52 (1976) 880 58 60 75 80 551 1500 1570 2600 2880
2022-09-19 00:45 8.06 651 3120 (1975) 52 (1976) 880 58 60 75 80 551 1500 1570 2600 2880
2022-09-18 23:45 8.61 826 3620 (1993) 52 (1984) 823 59 61 73 76 422 1380 1610 2300 2890
2022-09-18 22:45 9.33 1080 3620 (1993) 52 (1984) 823 59 61 73 76 422 1380 1610 2300 2890
2022-09-18 21:45 10.07 1380 3620 (1993) 52 (1984) 823 59 61 73 76 422 1380 1610 2300 2890
2022-09-18 20:45 10.97 1790 3620 (1993) 52 (1984) 823 59 61 73 76 422 1380 1610 2300 2890
2022-09-18 19:45 11.91 2280 3620 (1993) 52 (1984) 823 59 61 73 76 422 1380 1610 2300 2890
2022-09-18 18:45 12.56 2660 3620 (1993) 52 (1984) 823 59 61 73 76 422 1380 1610 2300 2890
2022-09-18 17:45 11.01 1810 3620 (1993) 52 (1984) 823 59 61 73 76 422 1380 1610 2300 2890
2022-09-18 16:45 5.92 119 3620 (1993) 52 (1984) 823 59 61 73 76 422 1380 1610 2300 2890
2022-09-18 15:45 5.61 70 3620 (1993) 52 (1984) 823 59 61 73 76 422 1380 1610 2300 2890
2022-09-18 14:45 5.61 70 3620 (1993) 52 (1984) 823 59 61 73 76 422 1380 1610 2300 2890
2022-09-18 13:45 5.61 70 3620 (1993) 52 (1984) 823 59 61 73 76 422 1380 1610 2300 2890
2022-09-18 12:45 5.61 70 3620 (1993) 52 (1984) 823 59 61 73 76 422 1380 1610 2300 2890
2022-09-18 11:45 5.61 70 3620 (1993) 52 (1984) 823 59 61 73 76 422 1380 1610 2300 2890
2022-09-18 10:45 5.62 72 3620 (1993) 52 (1984) 823 59 61 73 76 422 1380 1610 2300 2890
2022-09-18 09:45 5.66 77 3620 (1993) 52 (1984) 823 59 61 73 76 422 1380 1610 2300 2890
2022-09-18 08:45 5.59 68 3620 (1993) 52 (1984) 823 59 61 73 76 422 1380 1610 2300 2890
2022-09-18 07:45 5.61 70 3620 (1993) 52 (1984) 823 59 61 73 76 422 1380 1610 2300 2890
2022-09-18 06:45 5.60 69 3620 (1993) 52 (1984) 823 59 61 73 76 422 1380 1610 2300 2890
2022-09-18 05:45 5.60 69 3620 (1993) 52 (1984) 823 59 61 73 76 422 1380 1610 2300 2890
2022-09-18 04:45 5.59 68 3620 (1993) 52 (1984) 823 59 61 73 76 422 1380 1610 2300 2890
2022-09-18 03:45 5.58 66 3620 (1993) 52 (1984) 823 59 61 73 76 422 1380 1610 2300 2890
2022-09-18 02:45 5.60 69 3620 (1993) 52 (1984) 823 59 61 73 76 422 1380 1610 2300 2890
2022-09-18 01:45 5.60 69 3620 (1993) 52 (1984) 823 59 61 73 76 422 1380 1610 2300 2890
2022-09-18 00:45 5.59 68 3620 (1993) 52 (1984) 823 59 61 73 76 422 1380 1610 2300 2890

A total of 191 rows are displayed for years 1974 through 2021.